Historyczne dane pomiarowe

Dodano dane terminowe – wersja testowa.

Dane z okresu 1951-2019

Wersja bazy: 1.34 [2019-03-16, lista zmian], aktualizacja planowana na 2019-04-15

Dane meteo z obszaru Polski uzyskane na podstawie danych udostępnionych przez Instytut Meteorologii i Gospodarki Wodnej – Państwowy Instytut Badawczy.

 

Wybierz Datę:    

       

TemperaturaWilgotnośćWiatrCiśnienieOpadyŚniegCzas trwania zjawisk
 Stacja t tx tn tng RH VA  wxwx mslp ppp RRR   cm mm wxwxwxwxwxwxwx
1965-06-13 13.6 18.4 11.3- 90.8- 6.7 6.3---- 17.8------------
1965-06-14 15.0 20.7 11.1- 78.8- 3.7 3.0---- 0.0------------
1965-06-15 14.8 20.9 6.3- 76.0- 1.0 1.3---- 0.0------------
1965-06-16 16.8 22.4 5.2- 62.8- 1.7 2.0---- 0.0------------
1965-06-17 20.2 24.6 11.3- 52.5- 0.7 6.0---- 0.0------------
1965-06-18 14.2 18.7 12.0- 85.0- 7.3 3.0---- 1.8------------
1965-06-19 15.3 19.4 12.6- 82.0- 5.3 5.7---- 5.0------------
1965-06-20 13.3 18.6 12.2- 80.5- 5.3 4.0---- 0.0------------
1965-06-21 15.0 20.9 8.3- 81.5- 2.7 2.0---- 0.0------------
1965-06-22 19.7 24.4 4.5- 65.0- 1.3 2.0---- 0.0------------
1965-06-23 19.2 25.0 17.3- 75.5- 5.3 3.7---- 5.9------------
1965-06-24 17.5 23.1 9.7- 81.5- 2.7 2.0---- 1.5------------
1965-06-25 17.8 23.6 11.2- 82.8- 3.0 2.0---- 0.0------------
1965-06-26 21.8 27.2 8.7- 66.8- 2.0 2.7---- 0.0------------
1965-06-27 17.5 22.4 13.6- 71.5- 5.0 2.7---- 0.0------------
1965-06-28 14.6 20.2 11.6- 71.0- 3.7 2.7---- 0.2------------
1965-06-29 12.7 18.0 7.3- 80.8- 5.0 5.7---- 1.7------------
1965-06-30 15.9 21.8 7.1- 70.3- 0.3 2.7---- 0.0------------
1965-07-01 13.4 17.1 9.9- 79.0- 5.3 2.0---- 9.8------------
1965-07-02 14.2 18.1 3.2- 64.8- 3.7 3.0---- 0.0------------
1965-07-03 12.9 16.3 9.7- 69.8- 5.3 5.7---- 0.0------------
1965-07-04 12.3 17.2 6.3- 76.8- 3.7 3.7---- 0.0------------
1965-07-05 12.6 16.9 1.7- 74.0- 5.0 1.3---- 0.0------------
1965-07-06 10.5 16.2 4.5- 81.0- 1.3 3.3---- 3.4------------
1965-07-07 12.8 17.1 6.7- 80.3- 6.3 6.3---- 2.3------------
1965-07-08 18.8 22.3 9.8- 68.5- 3.3 5.7---- 5.8------------
1965-07-09 12.7 19.6 11.1- 71.8- 4.3 7.0---- 0.0------------
1965-07-10 12.7 17.9 8.6- 72.3- 5.7 3.7---- 0.0------------
1965-07-11 11.9 18.0 3.1- 84.3- 4.3 1.0---- 0.5------------
1965-07-12 17.5 21.9 2.3- 64.0- 4.0 4.3---- 7.1------------
171.3 ms

 

Źródłem pochodzenia danych jest Instytut Meteorologii i Gospodarki Wodnej – Państwowy Instytut Badawczy. Dane Instytutu Meteorologii i Gospodarki Wodnej – Państwowego Instytutu Badawczego zostały przetworzone.

Dane źródłowe można odnaleźć na stronie https://dane.imgw.pl